createdAt,value
2023-04-08T00:05:09.976Z,9.43
2023-04-08T00:11:02.985Z,8.73
2023-04-08T00:16:57.870Z,9.23
2023-04-08T00:22:50.957Z,8.97
2023-04-08T00:28:44.576Z,10.33
2023-04-08T00:34:39.013Z,10.03
2023-04-08T00:40:32.004Z,8.17
2023-04-08T00:46:27.141Z,8.40
2023-04-08T00:52:21.972Z,7.80
2023-04-08T00:58:16.387Z,7.90
2023-04-08T01:04:22.630Z,6.90
2023-04-08T01:10:22.730Z,7.10
2023-04-08T01:16:17.776Z,7.30
2023-04-08T01:22:20.213Z,7.57
2023-04-08T01:28:19.360Z,7.13
2023-04-08T01:34:15.300Z,8.33
2023-04-08T01:40:10.194Z,7.20
2023-04-08T01:46:07.060Z,7.20
2023-04-08T01:52:02.684Z,8.00
2023-04-08T01:58:01.227Z,7.17
2023-04-08T02:03:58.748Z,7.50
2023-04-08T02:09:52.372Z,7.53
2023-04-08T02:15:53.954Z,7.97
2023-04-08T02:21:53.553Z,7.77
2023-04-08T02:27:49.194Z,8.70
2023-04-08T02:33:43.985Z,8.83
2023-04-08T02:39:39.020Z,7.73
2023-04-08T02:45:33.700Z,6.27
2023-04-08T02:51:28.285Z,8.10
2023-04-08T02:57:22.625Z,8.10
2023-04-08T03:03:16.287Z,9.60
2023-04-08T03:09:10.031Z,8.00
2023-04-08T03:15:05.077Z,9.47
2023-04-08T03:20:58.229Z,9.73
2023-04-08T03:26:51.726Z,9.50
2023-04-08T03:32:46.606Z,10.47
2023-04-08T03:38:40.097Z,10.80
2023-04-08T03:44:33.694Z,11.10
2023-04-08T03:50:28.641Z,10.97
2023-04-08T03:56:21.858Z,9.20
2023-04-08T04:02:15.480Z,10.50
2023-04-08T04:08:10.789Z,9.67
2023-04-08T04:14:03.886Z,9.30
2023-04-08T04:19:57.318Z,9.87
2023-04-08T04:25:51.752Z,10.37
2023-04-08T04:31:44.769Z,10.83
2023-04-08T04:37:37.840Z,10.83
2023-04-08T04:43:32.176Z,11.00
2023-04-08T04:49:25.760Z,11.30
2023-04-08T04:55:19.220Z,10.67
2023-04-08T05:01:14.050Z,10.90
2023-04-08T05:07:07.098Z,11.33
2023-04-08T05:13:00.474Z,10.60
2023-04-08T05:18:55.251Z,10.80
2023-04-08T05:24:49.390Z,9.60
2023-04-08T05:30:42.377Z,10.80
2023-04-08T05:36:36.764Z,10.80
2023-04-08T05:42:30.217Z,10.30
2023-04-08T05:48:23.691Z,11.13
2023-04-08T05:54:18.516Z,11.10
2023-04-08T06:00:12.482Z,10.50
2023-04-08T06:06:05.920Z,10.83
2023-04-08T06:12:00.280Z,10.73
2023-04-08T06:17:53.731Z,10.67
2023-04-08T06:23:46.765Z,11.60
2023-04-08T06:29:42.948Z,11.40
2023-04-08T06:35:37.822Z,10.73
2023-04-08T06:41:30.843Z,10.53
2023-04-08T06:47:31.699Z,11.13
2023-04-08T06:53:25.982Z,12.57
2023-04-08T06:59:19.207Z,11.33
2023-04-08T07:05:13.746Z,10.87
2023-04-08T07:11:06.844Z,11.43
2023-04-08T07:17:00.368Z,11.50
2023-04-08T07:22:55.024Z,11.10
2023-04-08T07:28:48.233Z,10.03
2023-04-08T07:34:41.741Z,10.30
2023-04-08T07:40:36.129Z,10.20
2023-04-08T07:46:29.611Z,10.13
2023-04-08T07:52:23.166Z,10.30
2023-04-08T07:58:17.554Z,9.33
2023-04-08T08:04:11.268Z,8.63
2023-04-08T08:10:04.592Z,9.60
2023-04-08T08:15:59.086Z,9.37
2023-04-08T08:21:52.415Z,8.40
2023-04-08T08:27:45.621Z,8.50
2023-04-08T08:33:40.491Z,8.33
2023-04-08T08:39:33.866Z,8.53
2023-04-08T08:45:27.608Z,8.80
2023-04-08T08:51:23.148Z,8.47
2023-04-08T08:57:20.668Z,8.53
2023-04-08T09:03:18.267Z,8.20
2023-04-08T09:09:13.828Z,8.90
2023-04-08T09:15:09.305Z,9.27
2023-04-08T09:21:02.741Z,8.43
2023-04-08T09:26:57.757Z,8.37
2023-04-08T09:32:51.593Z,8.27
2023-04-08T09:38:45.481Z,9.37
2023-04-08T09:44:42.833Z,9.10
2023-04-08T09:50:44.688Z,8.83
2023-04-08T09:56:43.420Z,8.73
2023-04-08T10:02:47.607Z,8.47
2023-04-08T10:08:41.323Z,9.27
2023-04-08T10:14:34.778Z,9.00
2023-04-08T10:20:45.932Z,8.87
2023-04-08T10:26:43.734Z,9.13
2023-04-08T10:32:42.498Z,9.23
2023-04-08T10:38:37.517Z,9.53
2023-04-08T10:44:31.007Z,9.33
2023-04-08T10:50:24.559Z,8.80
2023-04-08T10:56:20.017Z,9.10
2023-04-08T11:02:16.362Z,9.90
2023-04-08T11:08:10.148Z,9.70
2023-04-08T11:14:05.193Z,10.47
2023-04-08T11:20:02.292Z,10.83
2023-04-08T11:25:56.130Z,10.67
2023-04-08T11:31:51.802Z,11.17
2023-04-08T11:37:47.329Z,11.70
2023-04-08T11:43:40.998Z,11.13
2023-04-08T11:49:46.606Z,11.23
2023-04-08T11:55:40.019Z,11.87
2023-04-08T12:01:33.617Z,11.67
2023-04-08T12:07:28.136Z,11.50
2023-04-08T12:13:21.807Z,10.00
2023-04-08T12:19:14.789Z,11.27
2023-04-08T12:25:09.960Z,12.40
2023-04-08T12:31:03.633Z,12.63
2023-04-08T12:36:57.145Z,10.60
2023-04-08T12:42:51.985Z,11.10
2023-04-08T12:48:47.471Z,10.47
2023-04-08T12:54:40.690Z,11.03
2023-04-08T13:00:37.629Z,11.30
2023-04-08T13:06:32.365Z,10.70
2023-04-08T13:12:25.784Z,10.97
2023-04-08T13:18:20.318Z,12.47
2023-04-08T13:24:13.699Z,13.43
2023-04-08T13:30:08.383Z,15.50
2023-04-08T13:36:03.228Z,13.00
2023-04-08T13:41:56.441Z,12.90
2023-04-08T13:47:49.515Z,12.00
2023-04-08T13:53:44.526Z,11.27
2023-04-08T13:59:37.589Z,12.17
2023-04-08T14:05:31.036Z,13.63
2023-04-08T14:11:26.044Z,14.70
2023-04-08T14:17:19.118Z,13.47
2023-04-08T14:23:13.396Z,13.00
2023-04-08T14:29:08.780Z,13.40
2023-04-08T14:35:02.247Z,14.67
2023-04-08T14:40:55.678Z,15.33
2023-04-08T14:46:50.099Z,16.30
2023-04-08T14:52:45.503Z,17.60
2023-04-08T14:58:38.606Z,16.27
2023-04-08T15:04:33.446Z,16.87
2023-04-08T15:10:28.407Z,16.47
2023-04-08T15:16:21.485Z,16.30
2023-04-08T15:22:16.076Z,15.10
2023-04-08T15:28:09.721Z,14.27
2023-04-08T15:34:03.963Z,14.00
2023-04-08T15:39:58.441Z,13.97
2023-04-08T15:45:51.882Z,14.37
2023-04-08T15:51:45.076Z,14.50
2023-04-08T15:57:39.506Z,13.80
2023-04-08T16:03:33.196Z,14.40
2023-04-08T16:09:27.117Z,12.87
2023-04-08T16:15:21.625Z,12.83
2023-04-08T16:21:14.825Z,13.13
2023-04-08T16:27:07.828Z,13.47
2023-04-08T16:33:02.274Z,14.03
2023-04-08T16:38:55.936Z,14.27
2023-04-08T16:44:48.983Z,16.77
2023-04-08T16:50:44.119Z,18.10
2023-04-08T16:56:37.243Z,19.80
2023-04-08T17:02:31.299Z,19.17
2023-04-08T17:08:26.722Z,18.97
2023-04-08T17:14:19.695Z,18.97
2023-04-08T17:20:13.890Z,18.17
2023-04-08T17:26:09.620Z,17.87
2023-04-08T17:32:02.723Z,15.67
2023-04-08T17:37:55.934Z,16.30
2023-04-08T17:43:50.880Z,17.20
2023-04-08T17:49:44.075Z,17.87
2023-04-08T17:55:37.105Z,18.73
2023-04-08T18:01:31.583Z,20.40
2023-04-08T18:07:24.689Z,22.03
2023-04-08T18:13:17.694Z,22.70
2023-04-08T18:19:13.726Z,24.40
2023-04-08T18:25:07.850Z,29.13
2023-04-08T18:31:01.303Z,28.00
2023-04-08T18:36:55.690Z,33.17
2023-04-08T18:42:48.837Z,34.40
2023-04-08T18:48:42.226Z,30.77
2023-04-08T18:54:37.176Z,31.07
2023-04-08T19:00:30.623Z,32.27
2023-04-08T19:06:23.601Z,30.37
2023-04-08T19:12:18.603Z,29.17
2023-04-08T19:18:11.632Z,30.27
2023-04-08T19:24:06.367Z,29.17
2023-04-08T19:30:01.087Z,28.30
2023-04-08T19:35:54.686Z,31.90
2023-04-08T19:41:48.590Z,34.60
2023-04-08T19:47:43.710Z,36.80
2023-04-08T19:53:37.413Z,34.70
2023-04-08T19:59:30.396Z,34.60
2023-04-08T20:05:25.236Z,29.93
2023-04-08T20:11:18.345Z,30.30
2023-04-08T20:17:11.532Z,26.80
2023-04-08T20:23:06.272Z,28.27
2023-04-08T20:28:59.474Z,28.30
2023-04-08T20:34:53.036Z,28.37
2023-04-08T20:40:47.483Z,28.80
2023-04-08T20:46:41.565Z,31.47
2023-04-08T20:52:35.636Z,32.70
2023-04-08T20:58:30.006Z,35.77
2023-04-08T21:04:24.845Z,37.97
2023-04-08T21:10:18.887Z,36.03
2023-04-08T21:16:13.743Z,39.57
2023-04-08T21:22:07.462Z,37.93
2023-04-08T21:28:01.142Z,37.10
2023-04-08T21:33:56.370Z,36.07
2023-04-08T21:39:50.041Z,35.20
2023-04-08T21:45:43.520Z,38.20
2023-04-08T21:51:38.885Z,41.30
2023-04-08T21:57:32.380Z,35.50
2023-04-08T22:03:25.431Z,33.37
2023-04-08T22:09:20.817Z,32.63
2023-04-08T22:15:13.828Z,33.30
2023-04-08T22:21:07.582Z,31.67
2023-04-08T22:27:02.653Z,32.13
2023-04-08T22:32:55.914Z,32.23
2023-04-08T22:38:49.082Z,31.00
2023-04-08T22:44:44.020Z,31.40
2023-04-08T22:50:37.075Z,31.17
2023-04-08T22:56:30.729Z,33.00
2023-04-08T23:02:25.289Z,31.10
2023-04-08T23:08:18.772Z,33.50
2023-04-08T23:14:12.511Z,33.20
2023-04-08T23:20:08.671Z,32.67
2023-04-08T23:26:02.176Z,30.93
2023-04-08T23:31:55.216Z,31.60
2023-04-08T23:37:49.557Z,35.10
2023-04-08T23:43:42.548Z,32.27
2023-04-08T23:49:35.536Z,34.27
2023-04-08T23:55:29.885Z,33.17
